sensor_id;sensor_type;location;lat;lon;timestamp;pressure;altitude;pressure_sealevel;temperature;humidity
57779;BME280;43608;49.486;9.640;2023-04-01T00:00:22;97165.59;;;9.00;74.91
57779;BME280;43608;49.486;9.640;2023-04-01T00:00:53;97142.03;;;8.89;75.56
57779;BME280;43608;49.486;9.640;2023-04-01T00:01:27;97169.09;;;9.01;75.58
57779;BME280;43608;49.486;9.640;2023-04-01T00:01:58;97154.25;;;8.95;75.43
57779;BME280;43608;49.486;9.640;2023-04-01T00:02:28;97142.06;;;8.88;75.31
57779;BME280;43608;49.486;9.640;2023-04-01T00:02:58;97146.44;;;8.90;75.27
57779;BME280;43608;49.486;9.640;2023-04-01T00:03:30;97158.66;;;8.96;75.40
57779;BME280;43608;49.486;9.640;2023-04-01T00:04:03;97142.97;;;8.88;75.53
57779;BME280;43608;49.486;9.640;2023-04-01T00:04:33;97141.13;;;8.90;75.50
57779;BME280;43608;49.486;9.640;2023-04-01T00:05:05;97139.56;;;8.82;75.25
57779;BME280;43608;49.486;9.640;2023-04-01T00:05:36;97168.28;;;8.99;75.17
57779;BME280;43608;49.486;9.640;2023-04-01T00:06:07;97146.38;;;8.92;74.98
57779;BME280;43608;49.486;9.640;2023-04-01T00:06:40;97158.56;;;8.99;75.13
57779;BME280;43608;49.486;9.640;2023-04-01T00:07:12;97149.91;;;8.92;75.22
57779;BME280;43608;49.486;9.640;2023-04-01T00:07:43;97149.97;;;8.89;75.20
57779;BME280;43608;49.486;9.640;2023-04-01T00:08:14;97153.38;;;8.96;75.34
57779;BME280;43608;49.486;9.640;2023-04-01T00:08:45;97161.28;;;8.96;75.12
57779;BME280;43608;49.486;9.640;2023-04-01T00:09:16;97165.66;;;8.97;75.13
57779;BME280;43608;49.486;9.640;2023-04-01T00:09:46;97156.88;;;8.97;74.89
57779;BME280;43608;49.486;9.640;2023-04-01T00:10:17;97142.16;;;8.85;74.88
57779;BME280;43608;49.486;9.640;2023-04-01T00:10:50;97149.03;;;8.93;75.07
57779;BME280;43608;49.486;9.640;2023-04-01T00:11:21;97170.00;;;9.00;74.98
57779;BME280;43608;49.486;9.640;2023-04-01T00:11:55;97177.94;;;9.00;74.92
57779;BME280;43608;49.486;9.640;2023-04-01T00:12:28;97167.34;;;9.00;75.04
57779;BME280;43608;49.486;9.640;2023-04-01T00:12:59;97127.22;;;8.84;74.96
57779;BME280;43608;49.486;9.640;2023-04-01T00:13:30;97168.25;;;9.00;74.97
57779;BME280;43608;49.486;9.640;2023-04-01T00:14:00;97162.09;;;8.98;74.94
57779;BME280;43608;49.486;9.640;2023-04-01T00:14:30;97162.09;;;8.98;75.34
57779;BME280;43608;49.486;9.640;2023-04-01T00:15:02;97159.50;;;8.97;75.14
57779;BME280;43608;49.486;9.640;2023-04-01T00:15:33;97174.38;;;9.01;75.18
57779;BME280;43608;49.486;9.640;2023-04-01T00:16:07;97163.91;;;8.98;75.30
57779;BME280;43608;49.486;9.640;2023-04-01T00:16:40;97148.16;;;8.91;75.16
57779;BME280;43608;49.486;9.640;2023-04-01T00:17:11;97170.13;;;8.95;74.75
57779;BME280;43608;49.486;9.640;2023-04-01T00:17:41;97166.47;;;9.01;74.99
57779;BME280;43608;49.486;9.640;2023-04-01T00:18:15;97158.66;;;8.95;74.73
57779;BME280;43608;49.486;9.640;2023-04-01T00:18:46;97172.69;;;8.98;74.93
57779;BME280;43608;49.486;9.640;2023-04-01T00:19:17;97164.72;;;9.00;74.99
57779;BME280;43608;49.486;9.640;2023-04-01T00:19:50;97102.09;;;8.64;74.98
57779;BME280;43608;49.486;9.640;2023-04-01T00:20:21;97153.38;;;8.96;75.04
57779;BME280;43608;49.486;9.640;2023-04-01T00:20:54;97149.03;;;8.92;75.13
57779;BME280;43608;49.486;9.640;2023-04-01T00:21:24;97152.44;;;8.97;74.72
57779;BME280;43608;49.486;9.640;2023-04-01T00:21:55;97162.97;;;9.00;75.19
57779;BME280;43608;49.486;9.640;2023-04-01T00:22:26;97155.94;;;8.99;75.21
57779;BME280;43608;49.486;9.640;2023-04-01T00:22:57;97158.63;;;8.98;75.06
57779;BME280;43608;49.486;9.640;2023-04-01T00:23:27;97161.22;;;8.99;75.23
57779;BME280;43608;49.486;9.640;2023-04-01T00:23:57;97169.19;;;8.98;75.26
57779;BME280;43608;49.486;9.640;2023-04-01T00:24:29;97144.72;;;8.88;75.33
57779;BME280;43608;49.486;9.640;2023-04-01T00:24:59;97152.59;;;8.89;75.37
57779;BME280;43608;49.486;9.640;2023-04-01T00:25:30;97161.34;;;8.93;75.49
57779;BME280;43608;49.486;9.640;2023-04-01T00:26:01;97160.38;;;8.97;75.42
57779;BME280;43608;49.486;9.640;2023-04-01T00:26:32;97148.31;;;8.85;75.30
57779;BME280;43608;49.486;9.640;2023-04-01T00:27:02;97169.19;;;8.98;75.62
57779;BME280;43608;49.486;9.640;2023-04-01T00:27:33;97153.38;;;8.95;75.34
57779;BME280;43608;49.486;9.640;2023-04-01T00:28:03;97155.31;;;8.86;75.24
57779;BME280;43608;49.486;9.640;2023-04-01T00:28:34;97160.41;;;8.96;75.30
57779;BME280;43608;49.486;9.640;2023-04-01T00:29:06;97163.19;;;8.89;75.24
57779;BME280;43608;49.486;9.640;2023-04-01T00:29:37;97153.47;;;8.91;75.24
57779;BME280;43608;49.486;9.640;2023-04-01T00:30:08;97152.56;;;8.92;75.39
57779;BME280;43608;49.486;9.640;2023-04-01T00:30:38;97163.94;;;8.96;75.24
57779;BME280;43608;49.486;9.640;2023-04-01T00:31:09;97167.44;;;8.97;75.14
57779;BME280;43608;49.486;9.640;2023-04-01T00:31:40;97173.56;;;8.97;75.12
57779;BME280;43608;49.486;9.640;2023-04-01T00:32:11;97162.16;;;8.97;75.12
57779;BME280;43608;49.486;9.640;2023-04-01T00:32:41;97162.09;;;8.98;75.26
57779;BME280;43608;49.486;9.640;2023-04-01T00:33:12;97161.34;;;8.93;75.05
57779;BME280;43608;49.486;9.640;2023-04-01T00:33:43;97158.78;;;8.90;75.08
57779;BME280;43608;49.486;9.640;2023-04-01T00:34:13;97158.78;;;8.90;75.25
57779;BME280;43608;49.486;9.640;2023-04-01T00:34:44;97173.56;;;8.97;75.20
57779;BME280;43608;49.486;9.640;2023-04-01T00:35:14;97171.88;;;8.96;75.16
57779;BME280;43608;49.486;9.640;2023-04-01T00:35:46;97172.75;;;8.95;75.20
57779;BME280;43608;49.486;9.640;2023-04-01T00:36:18;97156.13;;;8.90;75.23
57779;BME280;43608;49.486;9.640;2023-04-01T00:36:52;97168.41;;;8.92;75.22
57779;BME280;43608;49.486;9.640;2023-04-01T00:37:23;97162.31;;;8.89;75.45
57779;BME280;43608;49.486;9.640;2023-04-01T00:37:54;97168.41;;;8.92;75.23
57779;BME280;43608;49.486;9.640;2023-04-01T00:38:25;97177.19;;;8.93;75.43
57779;BME280;43608;49.486;9.640;2023-04-01T00:38:55;97170.16;;;8.93;75.14
57779;BME280;43608;49.486;9.640;2023-04-01T00:39:31;97152.84;;;8.79;75.24
57779;BME280;43608;49.486;9.640;2023-04-01T00:40:07;97117.94;;;8.64;75.17
57779;BME280;43608;49.486;9.640;2023-04-01T00:40:43;97176.31;;;8.94;75.19
57779;BME280;43608;49.486;9.640;2023-04-01T00:41:15;97164.09;;;8.88;75.00
57779;BME280;43608;49.486;9.640;2023-04-01T00:41:47;97169.28;;;8.93;75.19
57779;BME280;43608;49.486;9.640;2023-04-01T00:42:18;97171.94;;;8.91;75.01
57779;BME280;43608;49.486;9.640;2023-04-01T00:42:54;97167.50;;;8.93;74.84
57779;BME280;43608;49.486;9.640;2023-04-01T00:43:25;97181.63;;;8.92;74.83
57779;BME280;43608;49.486;9.640;2023-04-01T00:44:19;97166.66;;;8.91;75.01
57779;BME280;43608;49.486;9.640;2023-04-01T00:44:54;97182.47;;;8.93;75.11
57779;BME280;43608;49.486;9.640;2023-04-01T00:45:32;97184.25;;;8.92;75.00
57779;BME280;43608;49.486;9.640;2023-04-01T00:46:03;97180.03;;;8.84;74.93
57779;BME280;43608;49.486;9.640;2023-04-01T00:46:33;97171.06;;;8.92;74.64
57779;BME280;43608;49.486;9.640;2023-04-01T00:47:05;97150.13;;;8.82;74.82
57779;BME280;43608;49.486;9.640;2023-04-01T00:47:36;97162.41;;;8.86;74.88
57779;BME280;43608;49.486;9.640;2023-04-01T00:48:33;97166.66;;;8.91;74.75
57779;BME280;43608;49.486;9.640;2023-04-01T00:49:04;97173.75;;;8.91;75.01
57779;BME280;43608;49.486;9.640;2023-04-01T00:49:40;97179.03;;;8.91;74.93
57779;BME280;43608;49.486;9.640;2023-04-01T00:50:15;97149.41;;;8.75;75.13
57779;BME280;43608;49.486;9.640;2023-04-01T00:50:52;97165.97;;;8.83;74.70
57779;BME280;43608;49.486;9.640;2023-04-01T00:51:27;97179.03;;;8.91;74.80
57779;BME280;43608;49.486;9.640;2023-04-01T00:52:01;97160.75;;;8.80;74.70
57779;BME280;43608;49.486;9.640;2023-04-01T00:52:33;97182.56;;;8.90;74.43
57779;BME280;43608;49.486;9.640;2023-04-01T00:53:05;97183.38;;;8.92;74.39
57779;BME280;43608;49.486;9.640;2023-04-01T00:53:44;97166.75;;;8.88;74.47
57779;BME280;43608;49.486;9.640;2023-04-01T00:54:16;97172.84;;;8.90;74.39
57779;BME280;43608;49.486;9.640;2023-04-01T00:54:50;97172.81;;;8.92;74.51
57779;BME280;43608;49.486;9.640;2023-04-01T00:55:24;97139.75;;;8.74;74.44
57779;BME280;43608;49.486;9.640;2023-04-01T00:56:10;97174.66;;;8.88;74.54
57779;BME280;43608;49.486;9.640;2023-04-01T00:56:46;97162.47;;;8.81;74.38
57779;BME280;43608;49.486;9.640;2023-04-01T00:57:24;97185.16;;;8.91;74.53
57779;BME280;43608;49.486;9.640;2023-04-01T00:57:58;97171.09;;;8.91;74.50
57779;BME280;43608;49.486;9.640;2023-04-01T00:58:33;97180.78;;;8.90;74.59
57779;BME280;43608;49.486;9.640;2023-04-01T00:59:13;97174.72;;;8.85;74.59
57779;BME280;43608;49.486;9.640;2023-04-01T00:59:52;97174.66;;;8.88;74.45
57779;BME280;43608;49.486;9.640;2023-04-01T01:00:24;97158.88;;;8.85;74.82
57779;BME280;43608;49.486;9.640;2023-04-01T01:00:57;97153.75;;;8.79;74.72
57779;BME280;43608;49.486;9.640;2023-04-01T01:01:29;97159.84;;;8.81;74.47
57779;BME280;43608;49.486;9.640;2023-04-01T01:02:07;97152.13;;;8.72;74.76
57779;BME280;43608;49.486;9.640;2023-04-01T01:02:50;97170.28;;;8.87;74.48
57779;BME280;43608;49.486;9.640;2023-04-01T01:03:21;97174.69;;;8.87;74.51
57779;BME280;43608;49.486;9.640;2023-04-01T01:03:51;97165.03;;;8.84;74.57
57779;BME280;43608;49.486;9.640;2023-04-01T01:04:30;97178.22;;;8.87;74.46
57779;BME280;43608;49.486;9.640;2023-04-01T01:05:01;97172.97;;;8.84;74.51
57779;BME280;43608;49.486;9.640;2023-04-01T01:06:39;97177.31;;;8.87;74.42
57779;BME280;43608;49.486;9.640;2023-04-01T01:08:29;97177.34;;;8.85;74.65
57779;BME280;43608;49.486;9.640;2023-04-01T01:09:19;97166.91;;;8.81;74.79
57779;BME280;43608;49.486;9.640;2023-04-01T01:10:15;97172.94;;;8.87;74.55
57779;BME280;43608;49.486;9.640;2023-04-01T01:10:49;97167.69;;;8.86;74.51
57779;BME280;43608;49.486;9.640;2023-04-01T01:11:31;97154.59;;;8.80;74.21
57779;BME280;43608;49.486;9.640;2023-04-01T01:13:50;97162.41;;;8.84;74.52
57779;BME280;43608;49.486;9.640;2023-04-01T01:15:32;97178.25;;;8.84;74.25
57779;BME280;43608;49.486;9.640;2023-04-01T01:16:14;97163.41;;;8.79;74.55
57779;BME280;43608;49.486;9.640;2023-04-01T01:16:56;97155.63;;;8.74;74.56
57779;BME280;43608;49.486;9.640;2023-04-01T01:20:03;97146.75;;;8.76;74.71
57779;BME280;43608;49.486;9.640;2023-04-01T01:21:49;97167.81;;;8.80;74.85
57779;BME280;43608;49.486;9.640;2023-04-01T01:27:09;97152.28;;;8.64;74.78
57779;BME280;43608;49.486;9.640;2023-04-01T01:27:44;97153.78;;;8.76;74.72
57779;BME280;43608;49.486;9.640;2023-04-01T01:29:29;97154.63;;;8.78;74.93
57779;BME280;43608;49.486;9.640;2023-04-01T01:31:16;97150.25;;;8.77;74.81
57779;BME280;43608;49.486;9.640;2023-04-01T01:32:53;97159.03;;;8.77;74.91
57779;BME280;43608;49.486;9.640;2023-04-01T01:33:34;97152.00;;;8.78;74.84
57779;BME280;43608;49.486;9.640;2023-04-01T01:35:52;97152.13;;;8.72;75.06
57779;BME280;43608;49.486;9.640;2023-04-01T01:36:26;97139.78;;;8.72;75.01
57779;BME280;43608;49.486;9.640;2023-04-01T01:37:02;97145.88;;;8.76;74.89
57779;BME280;43608;49.486;9.640;2023-04-01T01:37:37;97125.91;;;8.63;74.97
57779;BME280;43608;49.486;9.640;2023-04-01T01:38:13;97136.19;;;8.76;75.01
57779;BME280;43608;49.486;9.640;2023-04-01T01:38:45;97136.22;;;8.73;75.16
57779;BME280;43608;49.486;9.640;2023-04-01T01:39:18;97130.13;;;8.71;75.17
57779;BME280;43608;49.486;9.640;2023-04-01T01:39:55;97152.03;;;8.76;74.96
57779;BME280;43608;49.486;9.640;2023-04-01T01:40:27;97149.41;;;8.76;75.39
57779;BME280;43608;49.486;9.640;2023-04-01T01:40:59;97142.38;;;8.75;75.38
57779;BME280;43608;49.486;9.640;2023-04-01T01:41:35;97140.63;;;8.74;75.08
57779;BME280;43608;49.486;9.640;2023-04-01T01:42:11;97108.25;;;8.66;75.09
57779;BME280;43608;49.486;9.640;2023-04-01T01:42:46;97135.41;;;8.70;74.78
57779;BME280;43608;49.486;9.640;2023-04-01T01:43:24;97130.13;;;8.71;74.86
57779;BME280;43608;49.486;9.640;2023-04-01T01:43:56;97136.28;;;8.72;74.87
57779;BME280;43608;49.486;9.640;2023-04-01T01:44:29;97151.09;;;8.77;74.84
57779;BME280;43608;49.486;9.640;2023-04-01T01:45:01;97124.91;;;8.68;74.81
57779;BME280;43608;49.486;9.640;2023-04-01T01:45:35;97112.84;;;8.56;74.85
57779;BME280;43608;49.486;9.640;2023-04-01T01:46:14;97147.59;;;8.77;74.81
57779;BME280;43608;49.486;9.640;2023-04-01T01:46:51;97111.72;;;8.67;74.72
57779;BME280;43608;49.486;9.640;2023-04-01T01:47:22;97133.63;;;8.72;74.81
57779;BME280;43608;49.486;9.640;2023-04-01T01:47:55;97142.31;;;8.77;74.88
57779;BME280;43608;49.486;9.640;2023-04-01T01:48:27;97125.03;;;8.64;74.81
57779;BME280;43608;49.486;9.640;2023-04-01T01:49:00;97135.41;;;8.71;75.07
57779;BME280;43608;49.486;9.640;2023-04-01T01:49:33;97122.22;;;8.70;74.93
57779;BME280;43608;49.486;9.640;2023-04-01T01:50:09;97131.97;;;8.68;75.11
57779;BME280;43608;49.486;9.640;2023-04-01T01:50:47;97132.00;;;8.66;75.01
57779;BME280;43608;49.486;9.640;2023-04-01T01:51:20;97084.84;;;8.49;75.08
57779;BME280;43608;49.486;9.640;2023-04-01T01:51:51;97140.59;;;8.76;74.89
57779;BME280;43608;49.486;9.640;2023-04-01T01:52:22;97132.88;;;8.67;75.00
57779;BME280;43608;49.486;9.640;2023-04-01T01:53:07;97136.28;;;8.72;75.10
57779;BME280;43608;49.486;9.640;2023-04-01T01:53:38;97136.19;;;8.75;74.90
57779;BME280;43608;49.486;9.640;2023-04-01T01:54:13;97123.91;;;8.74;74.89
57779;BME280;43608;49.486;9.640;2023-04-01T01:54:52;97138.88;;;8.73;74.84
57779;BME280;43608;49.486;9.640;2023-04-01T01:55:29;97124.97;;;8.65;74.82
57779;BME280;43608;49.486;9.640;2023-04-01T01:56:01;97131.94;;;8.69;74.83
57779;BME280;43608;49.486;9.640;2023-04-01T01:56:32;97129.28;;;8.69;74.78
57779;BME280;43608;49.486;9.640;2023-04-01T01:57:08;97098.00;;;8.51;74.79
57779;BME280;43608;49.486;9.640;2023-04-01T01:57:44;97113.41;;;8.71;74.85
57779;BME280;43608;49.486;9.640;2023-04-01T01:58:47;97134.47;;;8.74;74.67
57779;BME280;43608;49.486;9.640;2023-04-01T01:59:20;97134.53;;;8.71;74.75
57779;BME280;43608;49.486;9.640;2023-04-01T01:59:56;97126.69;;;8.68;74.90
57779;BME280;43608;49.486;9.640;2023-04-01T02:00:33;97120.59;;;8.64;74.90
57779;BME280;43608;49.486;9.640;2023-04-01T02:01:06;97122.09;;;8.76;74.87
57779;BME280;43608;49.486;9.640;2023-04-01T02:01:41;97119.63;;;8.68;75.01
57779;BME280;43608;49.486;9.640;2023-04-01T02:02:13;97130.94;;;8.73;74.82
57779;BME280;43608;49.486;9.640;2023-04-01T02:02:46;97139.75;;;8.74;74.81
57779;BME280;43608;49.486;9.640;2023-04-01T02:03:19;97131.88;;;8.71;74.74
57779;BME280;43608;49.486;9.640;2023-04-01T02:03:52;97123.06;;;8.72;74.93
57779;BME280;43608;49.486;9.640;2023-04-01T02:04:23;97120.59;;;8.64;75.02
57779;BME280;43608;49.486;9.640;2023-04-01T02:04:53;97125.78;;;8.69;75.04
57779;BME280;43608;49.486;9.640;2023-04-01T02:05:28;97127.53;;;8.68;75.17
57779;BME280;43608;49.486;9.640;2023-04-01T02:06:02;97125.84;;;8.66;75.01
57779;BME280;43608;49.486;9.640;2023-04-01T02:06:37;97076.06;;;8.47;75.04
57779;BME280;43608;49.486;9.640;2023-04-01T02:07:30;97124.84;;;8.70;74.97
57779;BME280;43608;49.486;9.640;2023-04-01T02:08:09;97127.50;;;8.70;74.91
57779;BME280;43608;49.486;9.640;2023-04-01T02:08:53;97113.44;;;8.69;74.80
57779;BME280;43608;49.486;9.640;2023-04-01T02:09:25;97107.34;;;8.66;74.91
57779;BME280;43608;49.486;9.640;2023-04-01T02:09:57;97124.91;;;8.68;74.93
57779;BME280;43608;49.486;9.640;2023-04-01T02:10:36;97130.19;;;8.68;74.94
57779;BME280;43608;49.486;9.640;2023-04-01T02:11:12;97123.16;;;8.67;74.75
57779;BME280;43608;49.486;9.640;2023-04-01T02:12:10;97121.44;;;8.66;74.90
57779;BME280;43608;49.486;9.640;2023-04-01T02:12:42;97129.38;;;8.66;75.06
57779;BME280;43608;49.486;9.640;2023-04-01T02:13:22;97107.56;;;8.56;74.76
57779;BME280;43608;49.486;9.640;2023-04-01T02:14:16;97106.44;;;8.67;74.75
57779;BME280;43608;49.486;9.640;2023-04-01T02:15:10;97127.63;;;8.65;74.70
57779;BME280;43608;49.486;9.640;2023-04-01T02:15:45;97107.50;;;8.58;74.71
57779;BME280;43608;49.486;9.640;2023-04-01T02:16:28;97119.75;;;8.64;74.89
57779;BME280;43608;49.486;9.640;2023-04-01T02:17:08;97135.53;;;8.65;74.79
57779;BME280;43608;49.486;9.640;2023-04-01T02:17:43;97098.97;;;8.47;74.75
57779;BME280;43608;49.486;9.640;2023-04-01T02:18:15;97119.66;;;8.67;74.73
57779;BME280;43608;49.486;9.640;2023-04-01T02:18:49;97113.53;;;8.66;74.42
57779;BME280;43608;49.486;9.640;2023-04-01T02:19:43;97125.06;;;8.60;74.51
57779;BME280;43608;49.486;9.640;2023-04-01T02:20:21;97115.34;;;8.63;74.62
57779;BME280;43608;49.486;9.640;2023-04-01T02:20:57;97104.88;;;8.58;74.67
57779;BME280;43608;49.486;9.640;2023-04-01T02:21:32;97130.22;;;8.67;74.48
57779;BME280;43608;49.486;9.640;2023-04-01T02:22:04;97121.41;;;8.68;74.72
57779;BME280;43608;49.486;9.640;2023-04-01T02:22:41;97120.50;;;8.67;74.64
57779;BME280;43608;49.486;9.640;2023-04-01T02:23:13;97118.03;;;8.61;74.51
57779;BME280;43608;49.486;9.640;2023-04-01T02:23:44;97117.22;;;8.57;74.67
57779;BME280;43608;49.486;9.640;2023-04-01T02:24:16;97119.81;;;8.59;74.62
57779;BME280;43608;49.486;9.640;2023-04-01T02:24:48;97114.50;;;8.60;74.76
57779;BME280;43608;49.486;9.640;2023-04-01T02:25:23;97102.41;;;8.50;74.86
57779;BME280;43608;49.486;9.640;2023-04-01T02:25:55;97123.28;;;8.63;75.00
57779;BME280;43608;49.486;9.640;2023-04-01T02:26:26;97117.22;;;8.57;75.18
57779;BME280;43608;49.486;9.640;2023-04-01T02:26:57;97117.22;;;8.57;74.91
57779;BME280;43608;49.486;9.640;2023-04-01T02:27:28;97091.03;;;8.45;74.85
57779;BME280;43608;49.486;9.640;2023-04-01T02:28:00;97102.41;;;8.50;74.88
57779;BME280;43608;49.486;9.640;2023-04-01T02:28:32;97103.28;;;8.51;74.84
57779;BME280;43608;49.486;9.640;2023-04-01T02:29:05;97119.91;;;8.54;74.96
57779;BME280;43608;49.486;9.640;2023-04-01T02:29:36;97118.19;;;8.52;75.08
57779;BME280;43608;49.486;9.640;2023-04-01T02:30:07;97114.66;;;8.53;75.14
57779;BME280;43608;49.486;9.640;2023-04-01T02:30:39;97130.44;;;8.57;75.02
57779;BME280;43608;49.486;9.640;2023-04-01T02:31:12;97128.63;;;8.58;75.04
57779;BME280;43608;49.486;9.640;2023-04-01T02:31:45;97133.91;;;8.58;75.16
57779;BME280;43608;49.486;9.640;2023-04-01T02:32:16;97129.53;;;8.58;75.25
57779;BME280;43608;49.486;9.640;2023-04-01T02:32:48;97115.72;;;8.46;75.33
57779;BME280;43608;49.486;9.640;2023-04-01T02:33:19;97104.34;;;8.40;75.30
57779;BME280;43608;49.486;9.640;2023-04-01T02:33:52;97122.69;;;8.48;75.20
57779;BME280;43608;49.486;9.640;2023-04-01T02:34:24;97109.59;;;8.42;75.38
57779;BME280;43608;49.486;9.640;2023-04-01T02:34:55;97125.25;;;8.51;75.44
57779;BME280;43608;49.486;9.640;2023-04-01T02:35:26;97129.66;;;8.52;75.46
57779;BME280;43608;49.486;9.640;2023-04-01T02:36:00;97136.63;;;8.55;75.32
57779;BME280;43608;49.486;9.640;2023-04-01T02:36:31;97108.59;;;8.48;75.51
57779;BME280;43608;49.486;9.640;2023-04-01T02:37:03;97118.34;;;8.46;75.59
57779;BME280;43608;49.486;9.640;2023-04-01T02:37:34;97124.34;;;8.54;75.54
57779;BME280;43608;49.486;9.640;2023-04-01T02:38:05;97109.53;;;8.47;75.76
57779;BME280;43608;49.486;9.640;2023-04-01T02:38:36;97121.81;;;8.49;75.42
57779;BME280;43608;49.486;9.640;2023-04-01T02:39:07;97135.78;;;8.53;75.71
57779;BME280;43608;49.486;9.640;2023-04-01T02:39:43;97134.94;;;8.52;75.78
57779;BME280;43608;49.486;9.640;2023-04-01T02:40:17;97110.53;;;8.39;75.75
57779;BME280;43608;49.486;9.640;2023-04-01T02:40:50;97125.31;;;8.50;75.61
57779;BME280;43608;49.486;9.640;2023-04-01T02:41:21;97118.31;;;8.47;75.86
57779;BME280;43608;49.486;9.640;2023-04-01T02:41:55;97101.81;;;8.34;75.68
57779;BME280;43608;49.486;9.640;2023-04-01T02:42:25;97104.50;;;8.33;75.78
57779;BME280;43608;49.486;9.640;2023-04-01T02:42:59;97102.69;;;8.35;75.62
57779;BME280;43608;49.486;9.640;2023-04-01T02:43:29;97110.31;;;8.50;75.63
57779;BME280;43608;49.486;9.640;2023-04-01T02:44:00;97111.28;;;8.46;75.55
57779;BME280;43608;49.486;9.640;2023-04-01T02:44:33;97134.03;;;8.52;75.17
57779;BME280;43608;49.486;9.640;2023-04-01T02:45:04;97094.72;;;8.38;75.36
57779;BME280;43608;49.486;9.640;2023-04-01T02:45:35;97132.38;;;8.49;75.50
57779;BME280;43608;49.486;9.640;2023-04-01T02:46:09;97128.75;;;8.52;75.58
57779;BME280;43608;49.486;9.640;2023-04-01T02:46:39;97118.34;;;8.44;75.58
57779;BME280;43608;49.486;9.640;2023-04-01T02:47:09;97136.69;;;8.52;75.49
57779;BME280;43608;49.486;9.640;2023-04-01T02:47:40;97113.09;;;8.44;75.64
57779;BME280;43608;49.486;9.640;2023-04-01T02:48:11;97124.44;;;8.48;75.62
57779;BME280;43608;49.486;9.640;2023-04-01T02:48:42;97096.59;;;8.33;75.66
57779;BME280;43608;49.486;9.640;2023-04-01T02:49:15;97128.88;;;8.47;75.84
57779;BME280;43608;49.486;9.640;2023-04-01T02:49:46;97132.28;;;8.52;75.53
57779;BME280;43608;49.486;9.640;2023-04-01T02:50:16;97119.16;;;8.48;75.47
57779;BME280;43608;49.486;9.640;2023-04-01T02:50:47;97120.94;;;8.47;75.29
57779;BME280;43608;49.486;9.640;2023-04-01T02:51:20;97102.63;;;8.38;75.48
57779;BME280;43608;49.486;9.640;2023-04-01T02:51:50;97129.63;;;8.54;75.45
57779;BME280;43608;49.486;9.640;2023-04-01T02:52:22;97131.44;;;8.50;75.44
57779;BME280;43608;49.486;9.640;2023-04-01T02:52:52;97128.81;;;8.50;75.32
57779;BME280;43608;49.486;9.640;2023-04-01T02:53:22;97122.63;;;8.51;75.48
57779;BME280;43608;49.486;9.640;2023-04-01T02:53:53;97101.72;;;8.40;75.48
57779;BME280;43608;49.486;9.640;2023-04-01T02:54:24;97122.63;;;8.51;75.59
57779;BME280;43608;49.486;9.640;2023-04-01T02:54:55;97127.88;;;8.53;75.70
57779;BME280;43608;49.486;9.640;2023-04-01T02:55:27;97102.56;;;8.41;75.59
57779;BME280;43608;49.486;9.640;2023-04-01T02:55:58;97121.84;;;8.46;75.37
57779;BME280;43608;49.486;9.640;2023-04-01T02:56:28;97118.34;;;8.46;75.48
57779;BME280;43608;49.486;9.640;2023-04-01T02:56:59;97117.44;;;8.45;75.32
57779;BME280;43608;49.486;9.640;2023-04-01T02:57:29;97111.28;;;8.46;75.47
57779;BME280;43608;49.486;9.640;2023-04-01T02:58:00;97133.97;;;8.56;75.24
57779;BME280;43608;49.486;9.640;2023-04-01T02:58:31;97118.19;;;8.52;75.30
57779;BME280;43608;49.486;9.640;2023-04-01T02:59:04;97102.50;;;8.44;75.42
57779;BME280;43608;49.486;9.640;2023-04-01T02:59:35;97129.53;;;8.57;75.25
57779;BME280;43608;49.486;9.640;2023-04-01T03:00:05;97127.81;;;8.56;75.01
57779;BME280;43608;49.486;9.640;2023-04-01T03:00:41;97133.06;;;8.57;74.90
57779;BME280;43608;49.486;9.640;2023-04-01T03:01:11;97130.47;;;8.56;75.01
57779;BME280;43608;49.486;9.640;2023-04-01T03:01:42;97129.53;;;8.57;74.93
57779;BME280;43608;49.486;9.640;2023-04-01T03:02:12;97126.94;;;8.55;74.89
57779;BME280;43608;49.486;9.640;2023-04-01T03:02:43;97113.00;;;8.49;75.12
57779;BME280;43608;49.486;9.640;2023-04-01T03:03:14;97133.09;;;8.56;75.18
57779;BME280;43608;49.486;9.640;2023-04-01T03:03:45;97134.03;;;8.53;75.26
57779;BME280;43608;49.486;9.640;2023-04-01T03:04:18;97122.63;;;8.51;75.00
57779;BME280;43608;49.486;9.640;2023-04-01T03:04:49;97118.16;;;8.55;75.08
57779;BME280;43608;49.486;9.640;2023-04-01T03:05:20;97137.38;;;8.62;75.05
57779;BME280;43608;49.486;9.640;2023-04-01T03:05:50;97134.69;;;8.63;74.99
57779;BME280;43608;49.486;9.640;2023-04-01T03:06:20;97120.72;;;8.58;74.98
57779;BME280;43608;49.486;9.640;2023-04-01T03:06:51;97117.25;;;8.56;75.18
57779;BME280;43608;49.486;9.640;2023-04-01T03:07:21;97136.53;;;8.59;75.07
57779;BME280;43608;49.486;9.640;2023-04-01T03:07:52;97112.25;;;8.40;75.04
57779;BME280;43608;49.486;9.640;2023-04-01T03:08:22;97131.22;;;8.61;74.87
57779;BME280;43608;49.486;9.640;2023-04-01T03:08:53;97131.28;;;8.58;74.99
57779;BME280;43608;49.486;9.640;2023-04-01T03:09:29;97137.44;;;8.58;74.94
57779;BME280;43608;49.486;9.640;2023-04-01T03:10:03;97104.28;;;8.43;74.99
57779;BME280;43608;49.486;9.640;2023-04-01T03:10:33;97114.56;;;8.57;75.15
57779;BME280;43608;49.486;9.640;2023-04-01T03:11:04;97134.72;;;8.62;75.12
57779;BME280;43608;49.486;9.640;2023-04-01T03:11:35;97115.56;;;8.53;74.89
57779;BME280;43608;49.486;9.640;2023-04-01T03:12:05;97132.16;;;8.58;74.92
57779;BME280;43608;49.486;9.640;2023-04-01T03:12:36;97126.81;;;8.62;74.87
57779;BME280;43608;49.486;9.640;2023-04-01T03:13:07;97126.91;;;8.57;74.76
57779;BME280;43608;49.486;9.640;2023-04-01T03:13:38;97128.59;;;8.59;74.83
57779;BME280;43608;49.486;9.640;2023-04-01T03:14:08;97133.88;;;8.61;74.88
57779;BME280;43608;49.486;9.640;2023-04-01T03:14:38;97122.41;;;8.60;74.41
57779;BME280;43608;49.486;9.640;2023-04-01T03:15:12;97130.31;;;8.64;75.08
57779;BME280;43608;49.486;9.640;2023-04-01T03:15:44;97110.28;;;8.52;74.93
57779;BME280;43608;49.486;9.640;2023-04-01T03:16:14;97114.69;;;8.51;74.94
57779;BME280;43608;49.486;9.640;2023-04-01T03:16:45;97135.59;;;8.64;74.83
57779;BME280;43608;49.486;9.640;2023-04-01T03:17:15;97114.63;;;8.56;74.72
57779;BME280;43608;49.486;9.640;2023-04-01T03:17:46;97114.69;;;8.51;74.90
57779;BME280;43608;49.486;9.640;2023-04-01T03:18:20;97132.94;;;8.62;74.82
57779;BME280;43608;49.486;9.640;2023-04-01T03:18:50;97119.88;;;8.57;74.96